EVLA/LPX METAR and TAF weather

Enter ICAO airport designator
Station Type Date Time Source
EVLA METAR 2018/01/22 19:50 UTC NOAA

EVLA 221950Z AUTO 18012KT 8000 SCT006/// BKN012/// OVC018/// M06/M06 Q1019


Station Type Date Time Source
EVLA Decoded METAR 2018/01/22 19:50 UTC NOAA

Liepaja International Airport, Latvia (EVLA) 56-31N 021-05E
Jan 22, 2018 - 02:50 PM EST / 2018.01.22 1950 UTC
Wind: from the S (180 degrees) at 14 MPH (12 KT):0
Visibility: 4 mile(s):0
Sky conditions: overcast
Temperature: 21 F (-6 C)
Windchill: 8 F (-13 C):1
Dew Point: 21 F (-6 C)
Relative Humidity: 100%
Pressure (altimeter): 30.09 in. Hg (1019 hPa)
ob: EVLA 221950Z AUTO 18012KT 8000 SCT006/// BKN012/// OVC018/// M06/M06 Q1019
cycle: 20

Station Type Date Time Source
EVLA TAF 2018/01/22 21:06 UTC NOAA

TAF TAF EVLA 222003Z 2221/2321 19009KT 8000 BKN010
TEMPO 2221/2224 3000 SN BKN005
BECMG 2300/2302 BKN015
TEMPO 2302/2321 BKN010


Example: see airport list